Time;durP1;ratioP1;P1;durP2;ratioP2;P2;SDS_P1;SDS_P2;PMS_P1;PMS_P2;Temp;Humidity;BMP_temperature;BMP_pressure;BME280_temperature;BME280_humidity;BME280_pressure;Samples;Min_cycle;Max_cycle;Signal;HPM_P1;HPM_P2
2024/01/30 00:02:19;;;;;;;14.23;10.63;;;3.70;1.00;;;;;;5039937;28;20320;-77
2024/01/30 00:04:46;;;;;;;16.00;13.27;;;3.70;1.00;;;;;;5027192;28;20328;-76
2024/01/30 00:07:13;;;;;;;14.25;10.88;;;3.60;1.00;;;;;;5039124;28;20259;-75
2024/01/30 00:09:41;;;;;;;15.45;12.15;;;3.60;1.00;;;;;;5051308;28;20228;-77
2024/01/30 00:12:10;;;;;;;14.60;12.05;;;3.50;1.00;;;;;;5053507;28;20233;-77
2024/01/30 00:14:37;;;;;;;17.10;12.25;;;3.50;1.00;;;;;;5051537;28;20237;-76
2024/01/30 00:17:06;;;;;;;14.93;13.18;;;3.50;1.00;;;;;;5053626;28;21081;-76
2024/01/30 00:19:35;;;;;;;15.07;12.25;;;3.40;1.00;;;;;;5051684;28;20241;-76
2024/01/30 00:22:01;;;;;;;13.95;11.57;;;3.30;1.00;;;;;;5053350;28;20237;-77
2024/01/30 00:24:28;;;;;;;14.82;11.82;;;3.30;1.00;;;;;;5052835;28;20241;-78
2024/01/30 00:26:55;;;;;;;12.55;11.25;;;3.20;1.00;;;;;;5054855;28;20237;-78
2024/01/30 00:29:22;;;;;;;14.75;11.95;;;3.20;1.00;;;;;;5054268;28;20241;-77
2024/01/30 00:31:50;;;;;;;15.00;12.00;;;3.20;1.00;;;;;;5053946;28;20237;-76
2024/01/30 00:34:18;;;;;;;12.80;11.60;;;3.10;1.00;;;;;;5052941;28;20713;-78
2024/01/30 00:36:47;;;;;;;15.63;11.55;;;3.10;1.00;;;;;;5050433;28;20265;-77
2024/01/30 00:39:15;;;;;;;15.35;11.05;;;3.10;1.00;;;;;;5049172;28;20241;-77
2024/01/30 00:41:43;;;;;;;15.32;11.57;;;3.10;1.00;;;;;;5051041;28;20236;-79
2024/01/30 00:44:10;;;;;;;18.90;11.88;;;3.10;1.00;;;;;;5050854;28;20248;-77
2024/01/30 00:46:37;;;;;;;15.45;10.10;;;3.10;1.00;;;;;;5050471;28;20241;-76
2024/01/30 00:49:04;;;;;;;13.98;11.25;;;3.10;1.00;;;;;;5053967;28;20809;-76
2024/01/30 00:51:32;;;;;;;16.23;10.90;;;3.10;1.00;;;;;;5051040;28;20276;-77
2024/01/30 00:53:59;;;;;;;12.07;10.80;;;3.10;1.00;;;;;;5054306;28;20291;-78
2024/01/30 00:56:26;;;;;;;16.42;12.25;;;3.00;1.00;;;;;;5053738;28;20321;-76
2024/01/30 00:58:53;;;;;;;11.52;10.30;;;3.00;1.00;;;;;;5054307;28;20244;-76
2024/01/30 01:01:20;;;;;;;11.95;10.80;;;3.00;1.00;;;;;;5052381;28;20233;-78
2024/01/30 01:03:49;;;;;;;11.60;9.60;;;3.00;1.00;;;;;;5053641;28;21109;-77
2024/01/30 01:06:16;;;;;;;12.95;10.07;;;3.00;1.00;;;;;;5051340;28;20241;-78
2024/01/30 01:08:44;;;;;;;14.20;11.40;;;3.00;1.00;;;;;;5054243;28;20249;-77
2024/01/30 01:11:11;;;;;;;12.60;11.27;;;3.00;1.00;;;;;;5055419;28;20246;-76
2024/01/30 01:13:38;;;;;;;16.35;11.55;;;3.00;1.00;;;;;;5034793;28;21362;-75
2024/01/30 01:16:06;;;;;;;12.70;10.90;;;2.90;1.00;;;;;;5046372;28;20293;-77
2024/01/30 01:18:33;;;;;;;14.43;11.85;;;2.90;1.00;;;;;;5045579;28;21783;-77
2024/01/30 01:21:01;;;;;;;13.05;10.98;;;2.80;1.00;;;;;;5054818;28;20233;-76
2024/01/30 01:23:28;;;;;;;11.00;9.90;;;2.80;1.00;;;;;;5035241;28;20983;-79
2024/01/30 01:25:56;;;;;;;15.02;10.50;;;2.90;1.00;;;;;;5038034;28;20237;-77
2024/01/30 01:28:24;;;;;;;14.35;10.38;;;2.80;1.00;;;;;;5050303;28;20244;-78
2024/01/30 01:30:52;;;;;;;12.38;10.35;;;2.80;1.00;;;;;;5055007;28;20456;-78
2024/01/30 01:33:19;;;;;;;11.60;10.40;;;2.90;1.00;;;;;;5035190;28;20235;-78
2024/01/30 01:35:46;;;;;;;12.32;10.48;;;2.90;1.00;;;;;;5052681;28;20237;-76
2024/01/30 01:38:13;;;;;;;18.75;11.45;;;2.90;1.00;;;;;;5053049;28;20315;-76
2024/01/30 01:40:43;;;;;;;12.57;10.95;;;2.90;1.00;;;;;;5034191;28;20241;-76
2024/01/30 01:43:12;;;;;;;14.40;10.80;;;2.90;1.00;;;;;;5038275;28;20296;-78
2024/01/30 01:45:41;;;;;;;11.90;10.65;;;2.80;1.00;;;;;;5050949;28;20249;-77
2024/01/30 01:48:09;;;;;;;11.85;10.55;;;2.80;1.00;;;;;;5034764;28;20464;-77
2024/01/30 01:50:37;;;;;;;13.98;10.35;;;2.80;1.00;;;;;;5043254;28;20238;-76
2024/01/30 01:53:06;;;;;;;15.68;11.60;;;2.80;1.00;;;;;;5033428;28;20262;-77
2024/01/30 01:55:33;;;;;;;12.25;10.30;;;2.80;1.00;;;;;;5036037;28;20345;-77
2024/01/30 01:58:00;;;;;;;11.93;10.52;;;2.80;1.00;;;;;;5041924;28;20238;-78
2024/01/30 02:00:31;;;;;;;14.30;10.32;;;2.70;1.00;;;;;;5034758;28;20246;-77
2024/01/30 02:02:58;;;;;;;13.73;10.82;;;2.70;1.00;;;;;;5046776;28;20291;-76
2024/01/30 02:05:26;;;;;;;46.35;16.10;;;2.60;1.00;;;;;;5043465;28;20244;-77
2024/01/30 02:07:57;;;;;;;13.50;10.93;;;2.50;1.00;;;;;;5038152;28;20311;-78
2024/01/30 02:10:24;;;;;;;15.77;10.50;;;2.50;1.00;;;;;;5054342;28;20248;-76
2024/01/30 02:12:52;;;;;;;10.75;9.65;;;2.50;1.00;;;;;;5041551;28;20253;-77
2024/01/30 02:15:19;;;;;;;14.85;11.88;;;2.50;1.00;;;;;;5032647;28;21474;-76
2024/01/30 02:17:50;;;;;;;15.60;11.18;;;2.50;1.00;;;;;;5033928;28;20300;-78
2024/01/30 02:20:18;;;;;;;11.55;10.45;;;2.60;1.00;;;;;;5033602;28;20576;-79
2024/01/30 02:22:47;;;;;;;14.00;11.23;;;2.60;1.00;;;;;;5040625;28;20238;-76
2024/01/30 02:25:15;;;;;;;12.68;10.02;;;2.70;1.00;;;;;;5049814;28;20257;-78
2024/01/30 02:27:41;;;;;;;10.85;9.75;;;2.70;1.00;;;;;;5051908;28;20439;-77
2024/01/30 02:30:12;;;;;;;12.48;9.95;;;2.70;1.00;;;;;;5038081;28;20272;-78
2024/01/30 02:32:40;;;;;;;12.20;11.00;;;2.80;1.00;;;;;;5041665;28;20312;-79
2024/01/30 02:35:07;;;;;;;11.85;10.27;;;2.90;1.00;;;;;;5046295;28;20249;-77
2024/01/30 02:37:37;;;;;;;13.65;9.82;;;2.90;1.00;;;;;;5049778;28;20253;-77
2024/01/30 02:40:07;;;;;;;13.18;9.57;;;3.00;1.00;;;;;;5031704;28;20270;-77
2024/01/30 02:42:34;;;;;;;10.20;9.10;;;2.90;1.00;;;;;;5040199;28;20812;-78
2024/01/30 02:45:01;;;;;;;10.60;9.40;;;2.90;1.00;;;;;;5038960;28;20302;-77
2024/01/30 02:47:28;;;;;;;12.07;9.63;;;2.90;1.00;;;;;;5043493;28;20389;-77
2024/01/30 02:49:55;;;;;;;12.18;9.93;;;3.00;1.00;;;;;;5043113;28;20307;-76
2024/01/30 02:52:22;;;;;;;12.35;10.55;;;3.00;1.00;;;;;;5048418;28;20356;-76
2024/01/30 02:54:49;;;;;;;13.63;10.07;;;3.00;1.00;;;;;;5052435;28;21150;-78
2024/01/30 02:57:20;;;;;;;11.57;9.77;;;2.90;1.00;;;;;;5035356;28;20242;-77
2024/01/30 02:59:47;;;;;;;13.65;11.13;;;2.90;1.00;;;;;;5043859;28;21118;-76
2024/01/30 03:02:17;;;;;;;14.70;10.00;;;2.90;1.00;;;;;;5045055;28;20355;-76
2024/01/30 03:04:44;;;;;;;14.38;9.45;;;2.90;1.00;;;;;;5051429;28;20785;-76
2024/01/30 03:07:11;;;;;;;11.68;10.23;;;2.80;1.00;;;;;;5044329;28;21112;-76
2024/01/30 03:09:39;;;;;;;13.02;10.73;;;2.80;1.00;;;;;;5041122;28;20281;-77
2024/01/30 03:12:07;;;;;;;13.02;11.18;;;2.80;1.00;;;;;;5042563;28;20229;-77
2024/01/30 03:14:36;;;;;;;14.02;10.80;;;2.70;1.00;;;;;;5028447;28;20230;-77
2024/01/30 03:17:03;;;;;;;13.77;10.63;;;2.70;1.00;;;;;;5047422;28;20236;-76
2024/01/30 03:19:30;;;;;;;13.82;11.50;;;2.70;1.00;;;;;;5040029;28;20333;-80
2024/01/30 03:21:57;;;;;;;17.25;11.50;;;2.60;1.00;;;;;;5031635;28;20322;-77
2024/01/30 03:24:26;;;;;;;14.55;9.25;;;2.60;1.00;;;;;;5038353;28;20721;-77
2024/01/30 03:26:55;;;;;;;14.35;11.00;;;2.60;1.00;;;;;;5030605;28;20319;-78
2024/01/30 03:29:22;;;;;;;14.05;11.07;;;2.50;1.00;;;;;;5030720;28;20711;-78
2024/01/30 03:31:50;;;;;;;12.50;9.68;;;2.60;1.00;;;;;;5030850;28;20238;-78
2024/01/30 03:34:17;;;;;;;14.52;10.63;;;2.50;1.00;;;;;;5038039;28;20311;-76
2024/01/30 03:36:45;;;;;;;25.73;12.57;;;2.60;1.00;;;;;;5047472;28;20246;-78
2024/01/30 03:39:12;;;;;;;14.93;10.70;;;2.60;1.00;;;;;;5038633;28;20241;-76
2024/01/30 03:41:43;;;;;;;12.02;10.57;;;2.60;1.00;;;;;;5051252;28;20256;-78
2024/01/30 03:44:10;;;;;;;12.43;10.10;;;2.70;1.00;;;;;;5051930;28;20328;-78
2024/01/30 03:46:37;;;;;;;15.70;11.55;;;2.60;1.00;;;;;;5042622;28;20325;-77
2024/01/30 03:49:06;;;;;;;12.68;10.45;;;2.60;1.00;;;;;;5048672;28;20248;-76
2024/01/30 03:51:33;;;;;;;12.48;10.98;;;2.50;1.00;;;;;;5048846;28;20249;-77
2024/01/30 03:54:00;;;;;;;14.55;11.48;;;2.50;1.00;;;;;;5046708;28;20236;-78
2024/01/30 03:56:27;;;;;;;11.35;10.02;;;2.40;1.00;;;;;;5043703;28;20722;-77
2024/01/30 03:58:55;;;;;;;13.90;10.23;;;2.40;1.00;;;;;;5050972;28;20236;-77
2024/01/30 04:01:22;;;;;;;13.52;10.90;;;2.40;1.00;;;;;;5031969;28;20265;-77
2024/01/30 04:03:49;;;;;;;15.45;11.30;;;2.40;1.00;;;;;;5030049;28;20248;-79
2024/01/30 04:06:18;;;;;;;13.77;12.43;;;2.50;1.00;;;;;;5031108;28;20335;-77
2024/01/30 04:08:45;;;;;;;13.05;10.45;;;2.60;1.00;;;;;;5030266;28;20234;-76
2024/01/30 04:11:12;;;;;;;15.95;11.93;;;2.60;1.00;;;;;;5033081;28;20312;-76
2024/01/30 04:13:39;;;;;;;13.77;10.65;;;2.60;1.00;;;;;;5034937;28;20284;-77
2024/01/30 04:16:07;;;;;;;13.68;10.52;;;2.60;1.00;;;;;;5041565;28;20245;-76
2024/01/30 04:18:34;;;;;;;12.23;10.98;;;2.60;1.00;;;;;;5052051;28;20253;-78
2024/01/30 04:21:04;;;;;;;15.52;10.45;;;2.60;1.00;;;;;;5051584;28;20265;-77
2024/01/30 04:23:32;;;;;;;14.45;11.48;;;2.70;1.00;;;;;;5053248;28;20327;-77
2024/01/30 04:25:59;;;;;;;12.05;10.60;;;2.70;1.00;;;;;;5036030;28;20860;-78
2024/01/30 04:28:26;;;;;;;15.05;11.80;;;2.60;1.00;;;;;;5035282;28;20265;-77
2024/01/30 04:30:54;;;;;;;15.95;11.32;;;2.50;1.00;;;;;;5043914;28;21067;-78
2024/01/30 04:33:21;;;;;;;16.08;12.73;;;2.50;1.00;;;;;;5043146;28;21006;-77
2024/01/30 04:35:48;;;;;;;17.75;11.60;;;2.30;1.00;;;;;;5039707;28;20289;-78
2024/01/30 04:38:15;;;;;;;15.32;11.07;;;2.30;1.00;;;;;;5047169;28;20304;-77
2024/01/30 04:40:44;;;;;;;14.18;11.27;;;2.20;1.00;;;;;;5038154;28;20321;-79
2024/01/30 04:43:10;;;;;;;14.25;12.68;;;2.20;1.00;;;;;;5046669;28;20272;-77
2024/01/30 04:45:38;;;;;;;20.15;13.15;;;2.20;1.00;;;;;;5033041;28;21074;-77
2024/01/30 04:48:05;;;;;;;14.25;11.68;;;2.10;1.00;;;;;;5050472;28;20241;-77
2024/01/30 04:50:32;;;;;;;17.30;12.75;;;2.20;1.00;;;;;;5054310;28;20238;-76
2024/01/30 04:52:59;;;;;;;23.27;12.30;;;2.20;1.00;;;;;;5052125;28;20336;-76
2024/01/30 04:55:27;;;;;;;15.70;11.07;;;2.20;1.00;;;;;;5033446;28;20242;-77
2024/01/30 04:57:55;;;;;;;13.65;11.15;;;2.30;1.00;;;;;;5046604;28;20291;-76
2024/01/30 05:00:22;;;;;;;15.10;10.73;;;2.30;1.00;;;;;;5054062;28;20233;-76
2024/01/30 05:02:49;;;;;;;13.63;10.70;;;2.30;1.00;;;;;;5041445;28;20355;-76
2024/01/30 05:05:17;;;;;;;16.60;11.75;;;2.40;1.00;;;;;;5029120;28;20245;-75
2024/01/30 05:07:47;;;;;;;14.57;11.63;;;2.40;1.00;;;;;;5031790;28;20234;-76
2024/01/30 05:10:14;;;;;;;16.25;11.25;;;2.50;1.00;;;;;;5045840;28;21067;-76
2024/01/30 05:12:43;;;;;;;12.70;11.50;;;2.40;1.00;;;;;;5033910;28;20296;-76
2024/01/30 05:15:12;;;;;;;16.05;11.45;;;2.40;1.00;;;;;;5059623;28;20234;-75
2024/01/30 05:17:39;;;;;;;15.05;11.75;;;2.40;1.00;;;;;;5045581;28;20328;-76
2024/01/30 05:20:07;;;;;;;15.02;10.70;;;2.40;1.00;;;;;;5039909;28;20234;-77
2024/01/30 05:22:34;;;;;;;13.00;11.60;;;2.40;1.00;;;;;;5042420;28;20316;-76
2024/01/30 05:25:01;;;;;;;14.93;10.82;;;2.40;1.00;;;;;;5049963;28;20324;-77
2024/01/30 05:27:28;;;;;;;15.02;11.88;;;2.50;1.00;;;;;;5050692;28;20241;-74
2024/01/30 05:29:55;;;;;;;12.65;10.82;;;2.50;1.00;;;;;;5043552;28;20264;-74
2024/01/30 05:32:23;;;;;;;13.40;11.40;;;2.50;1.00;;;;;;5049330;28;20265;-75
2024/01/30 05:34:50;;;;;;;13.85;10.95;;;2.60;1.00;;;;;;5034706;28;20244;-74
2024/01/30 05:37:18;;;;;;;14.57;10.80;;;2.50;1.00;;;;;;5044096;28;20252;-74
2024/01/30 05:39:45;;;;;;;14.68;11.75;;;2.50;1.00;;;;;;5032800;28;20241;-74
2024/01/30 05:42:12;;;;;;;11.77;10.48;;;2.50;1.00;;;;;;5044512;28;20316;-77
2024/01/30 05:44:39;;;;;;;12.18;10.88;;;2.40;1.00;;;;;;5034873;28;20238;-73
2024/01/30 05:47:07;;;;;;;15.45;11.90;;;2.40;1.00;;;;;;5040776;28;20238;-73
2024/01/30 05:49:36;;;;;;;13.52;11.90;;;2.30;1.00;;;;;;5051334;28;20303;-78
2024/01/30 05:52:04;;;;;;;13.70;10.80;;;2.30;1.00;;;;;;5037207;28;20734;-74
2024/01/30 05:54:31;;;;;;;14.90;10.88;;;2.40;1.00;;;;;;5032497;28;20342;-76
2024/01/30 05:56:58;;;;;;;19.35;12.70;;;2.40;1.00;;;;;;5041347;28;20238;-75
2024/01/30 05:59:25;;;;;;;13.45;10.98;;;2.40;1.00;;;;;;5041023;28;20307;-76
2024/01/30 06:01:52;;;;;;;13.10;11.55;;;2.40;1.00;;;;;;5037448;28;21001;-74
2024/01/30 06:04:19;;;;;;;14.93;10.88;;;2.30;1.00;;;;;;5015011;28;20328;-75
2024/01/30 06:06:48;;;;;;;16.92;11.98;;;2.30;1.00;;;;;;5027987;28;20329;-74
2024/01/30 06:09:15;;;;;;;23.08;13.95;;;2.30;1.00;;;;;;5030546;28;20389;-75
2024/01/30 06:11:42;;;;;;;19.02;12.55;;;2.30;1.00;;;;;;5043389;28;20238;-74
2024/01/30 06:14:09;;;;;;;14.00;11.55;;;2.30;1.00;;;;;;5049371;28;20248;-72
2024/01/30 06:16:36;;;;;;;14.32;10.90;;;2.30;1.00;;;;;;5027255;28;21052;-73
2024/01/30 06:19:03;;;;;;;14.10;11.98;;;2.30;1.00;;;;;;5045280;28;20244;-75
2024/01/30 06:21:30;;;;;;;13.48;10.55;;;2.30;1.00;;;;;;5039426;28;20314;-74
2024/01/30 06:23:58;;;;;;;18.85;12.85;;;2.30;1.00;;;;;;5040245;28;20249;-75
2024/01/30 06:26:25;;;;;;;14.52;12.55;;;2.40;1.00;;;;;;5027965;28;21047;-74
2024/01/30 06:28:53;;;;;;;14.93;12.50;;;2.40;1.00;;;;;;5041596;28;20234;-74
2024/01/30 06:31:20;;;;;;;13.90;11.90;;;2.40;1.00;;;;;;5051668;28;20237;-74
2024/01/30 06:33:48;;;;;;;15.65;12.82;;;2.40;1.00;;;;;;5050799;28;20232;-75
2024/01/30 06:36:15;;;;;;;16.92;12.65;;;2.40;1.00;;;;;;5045984;28;20319;-77
2024/01/30 06:38:42;;;;;;;16.80;11.15;;;2.40;1.00;;;;;;5042005;28;20712;-76
2024/01/30 06:41:11;;;;;;;14.30;10.90;;;2.50;1.00;;;;;;5048438;28;21024;-75
2024/01/30 06:43:38;;;;;;;16.13;12.27;;;2.40;1.00;;;;;;5045504;28;20587;-74
2024/01/30 06:46:05;;;;;;;15.43;13.45;;;2.50;1.00;;;;;;5050130;28;20343;-75
2024/01/30 06:48:32;;;;;;;17.60;13.43;;;2.60;1.00;;;;;;5038848;28;20331;-75
2024/01/30 06:50:59;;;;;;;21.50;12.75;;;2.60;1.00;;;;;;5043892;28;20265;-75
2024/01/30 06:53:27;;;;;;;18.63;12.50;;;2.50;1.00;;;;;;5041567;28;20368;-75
2024/01/30 06:55:54;;;;;;;20.75;14.35;;;2.60;1.00;;;;;;5043768;28;20259;-75
2024/01/30 06:58:24;;;;;;;16.83;13.10;;;2.60;1.00;;;;;;5040829;28;20242;-76
2024/01/30 07:00:51;;;;;;;16.10;12.90;;;2.60;1.00;;;;;;5036984;28;20263;-75
2024/01/30 07:03:18;;;;;;;21.02;12.23;;;2.50;1.00;;;;;;5051063;28;20271;-75
2024/01/30 07:05:45;;;;;;;23.83;13.40;;;2.60;1.00;;;;;;5048271;28;21167;-76
2024/01/30 07:08:12;;;;;;;15.57;13.27;;;2.50;1.00;;;;;;5036879;28;20411;-74
2024/01/30 07:10:42;;;;;;;16.10;12.02;;;2.50;1.00;;;;;;5037787;28;20333;-75
2024/01/30 07:13:10;;;;;;;15.45;12.55;;;2.50;1.00;;;;;;5029326;28;20234;-77
2024/01/30 07:15:38;;;;;;;15.95;13.10;;;2.50;1.00;;;;;;5030226;28;20336;-75
2024/01/30 07:18:06;;;;;;;68.43;39.00;;;2.50;1.00;;;;;;5050670;28;20348;-74
2024/01/30 07:20:33;;;;;;;17.00;12.25;;;2.50;1.00;;;;;;5032587;28;20312;-74
2024/01/30 07:23:00;;;;;;;16.45;11.93;;;2.50;1.00;;;;;;5052333;28;20268;-76
2024/01/30 07:25:29;;;;;;;18.42;13.40;;;2.50;1.00;;;;;;5031772;28;20244;-76
2024/01/30 07:27:56;;;;;;;15.55;12.63;;;2.60;1.00;;;;;;5027184;28;20320;-79
2024/01/30 07:30:24;;;;;;;17.70;14.10;;;2.60;1.00;;;;;;5038460;28;20233;-74
2024/01/30 07:32:55;;;;;;;19.33;13.55;;;2.60;1.00;;;;;;5052755;28;20241;-76
2024/01/30 07:35:23;;;;;;;18.10;12.98;;;2.70;1.00;;;;;;5050090;28;20825;-76
2024/01/30 07:37:52;;;;;;;19.40;14.52;;;2.80;1.00;;;;;;5050715;28;20689;-76
2024/01/30 07:40:20;;;;;;;23.77;14.63;;;2.80;1.00;;;;;;5049171;28;20237;-76
2024/01/30 07:42:50;;;;;;;17.67;12.65;;;2.90;1.00;;;;;;5048753;28;20241;-74
2024/01/30 07:45:21;;;;;;;17.98;12.40;;;2.90;1.00;;;;;;5030708;28;20236;-76
2024/01/30 07:47:48;;;;;;;18.63;13.38;;;3.00;1.00;;;;;;5035847;28;20315;-76
2024/01/30 07:50:17;;;;;;;15.35;11.93;;;3.20;1.00;;;;;;5050957;28;20260;-78
2024/01/30 07:52:44;;;;;;;20.85;11.55;;;3.20;1.00;;;;;;5041446;28;20245;-77
2024/01/30 07:55:13;;;;;;;16.33;11.98;;;3.30;1.00;;;;;;5049593;28;20241;-76
2024/01/30 07:57:40;;;;;;;19.85;13.10;;;3.40;1.00;;;;;;5033488;28;20238;-76
2024/01/30 08:00:10;;;;;;;18.23;12.38;;;3.40;1.00;;;;;;5051061;28;20241;-78
2024/01/30 08:02:37;;;;;;;17.35;11.93;;;3.40;1.00;;;;;;5040322;28;20324;-76
2024/01/30 08:05:04;;;;;;;26.63;14.80;;;3.50;1.00;;;;;;5038603;28;20636;-77
2024/01/30 08:07:33;;;;;;;20.98;13.27;;;3.50;1.00;;;;;;5049326;28;20296;-76
2024/01/30 08:10:00;;;;;;;16.70;12.77;;;3.50;1.00;;;;;;5041393;28;20401;-76
2024/01/30 08:12:26;;;;;;;20.38;13.25;;;3.60;1.00;;;;;;5047660;28;20303;-77
2024/01/30 08:14:53;;;;;;;14.23;12.40;;;3.60;1.00;;;;;;5048267;28;20268;-77
2024/01/30 08:17:21;;;;;;;19.13;14.23;;;3.70;1.00;;;;;;5045160;28;20795;-78
2024/01/30 08:19:48;;;;;;;18.00;13.10;;;3.80;1.00;;;;;;5024909;28;21040;-76
2024/01/30 08:22:15;;;;;;;16.95;14.57;;;3.90;1.00;;;;;;5046534;28;21048;-76
2024/01/30 08:24:45;;;;;;;28.38;13.07;;;4.00;1.00;;;;;;5049549;28;20356;-77
2024/01/30 08:27:12;;;;;;;29.95;14.65;;;4.10;1.00;;;;;;5053014;28;20257;-76
2024/01/30 08:29:39;;;;;;;24.55;13.63;;;4.20;1.00;;;;;;5050650;28;20251;-77
2024/01/30 08:32:07;;;;;;;15.55;12.55;;;4.20;1.00;;;;;;5053993;28;20959;-78
2024/01/30 08:34:35;;;;;;;21.45;15.77;;;4.20;1.00;;;;;;5033943;28;21108;-77
2024/01/30 08:37:01;;;;;;;14.98;12.98;;;4.30;1.00;;;;;;5031802;28;21100;-76
2024/01/30 08:39:29;;;;;;;23.70;14.55;;;4.30;1.00;;;;;;5051689;28;20320;-77
2024/01/30 08:41:57;;;;;;;18.60;13.63;;;4.30;1.00;;;;;;5051981;28;20299;-76
2024/01/30 08:44:24;;;;;;;19.08;14.25;;;4.40;1.00;;;;;;5044474;28;20292;-78
2024/01/30 08:46:51;;;;;;;20.23;13.82;;;4.50;1.00;;;;;;5052602;28;20268;-77
2024/01/30 08:49:18;;;;;;;20.20;12.73;;;4.70;1.00;;;;;;5051480;28;20290;-76
2024/01/30 08:51:47;;;;;;;24.45;15.55;;;4.80;1.00;;;;;;5033201;28;20238;-77
2024/01/30 08:54:14;;;;;;;30.65;13.93;;;4.90;1.00;;;;;;5047797;28;20261;-77
2024/01/30 08:56:42;;;;;;;20.30;14.65;;;5.00;1.00;;;;;;5040356;28;20406;-77
2024/01/30 08:59:11;;;;;;;24.83;14.00;;;5.20;1.00;;;;;;5040121;28;20329;-81
2024/01/30 09:01:38;;;;;;;20.52;13.15;;;5.40;1.00;;;;;;5039302;28;20247;-78
2024/01/30 09:04:05;;;;;;;22.65;13.98;;;5.50;1.00;;;;;;5037855;28;21151;-76
2024/01/30 09:06:34;;;;;;;16.08;13.88;;;5.60;1.00;;;;;;5042345;28;20348;-76
2024/01/30 09:09:01;;;;;;;19.95;13.57;;;5.90;1.00;;;;;;5047009;28;20322;-77
2024/01/30 09:11:28;;;;;;;16.23;12.57;;;6.10;1.00;;;;;;5047696;28;20248;-77
2024/01/30 09:13:55;;;;;;;13.98;12.57;;;6.20;1.00;;;;;;5036284;28;20333;-76
2024/01/30 09:16:23;;;;;;;17.55;12.00;;;6.40;1.00;;;;;;5051176;28;20313;-76
2024/01/30 09:18:50;;;;;;;18.25;12.88;;;6.60;1.00;;;;;;5052344;28;21071;-77
2024/01/30 09:21:20;;;;;;;17.63;11.63;;;6.70;1.00;;;;;;5050029;28;20245;-76
2024/01/30 09:23:49;;;;;;;14.03;11.83;;;6.90;1.00;;;;;;5051979;28;21128;-76
2024/01/30 09:26:15;;;;;;;17.30;12.80;;;6.90;1.00;;;;;;5051871;28;21234;-77
2024/01/30 09:28:43;;;;;;;16.38;11.32;;;7.00;1.00;;;;;;5050716;28;20533;-74
2024/01/30 09:31:11;;;;;;;13.32;11.20;;;7.00;1.00;;;;;;5042380;28;20249;-74
2024/01/30 09:33:44;;;;;;;14.82;11.10;;;7.00;1.00;;;;;;5051062;28;20278;-74
2024/01/30 09:36:11;;;;;;;19.13;13.30;;;7.10;1.00;;;;;;5049572;28;20248;-77
2024/01/30 09:38:39;;;;;;;15.93;12.27;;;7.10;1.00;;;;;;5050731;28;20564;-75
2024/01/30 09:41:11;;;;;;;14.23;12.48;;;7.20;1.00;;;;;;5049949;28;20486;-78
2024/01/30 09:43:40;;;;;;;17.63;11.43;;;7.20;1.00;;;;;;5048723;28;21182;-77
2024/01/30 09:46:09;;;;;;;17.80;12.00;;;7.30;1.00;;;;;;5051129;28;20467;-74
2024/01/30 09:48:36;;;;;;;17.40;12.33;;;7.50;1.00;;;;;;5048134;28;20558;-75
2024/01/30 09:51:06;;;;;;;17.13;11.50;;;7.60;1.00;;;;;;5051619;28;20516;-75
2024/01/30 09:53:33;;;;;;;16.57;12.07;;;7.70;1.00;;;;;;5050521;28;20457;-73
2024/01/30 09:56:00;;;;;;;13.30;11.90;;;7.90;1.00;;;;;;5050047;28;20453;-72
2024/01/30 09:58:27;;;;;;;13.80;11.27;;;7.90;1.00;;;;;;5049714;28;20464;-75
2024/01/30 10:00:54;;;;;;;14.93;11.20;;;7.90;1.00;;;;;;5050808;28;20524;-77
2024/01/30 10:03:21;;;;;;;18.53;12.23;;;8.00;1.00;;;;;;5034233;28;20515;-75
2024/01/30 10:05:53;;;;;;;14.50;10.77;;;8.20;1.00;;;;;;5051148;28;20518;-73
2024/01/30 10:08:21;;;;;;;14.93;11.80;;;8.50;1.00;;;;;;5049296;28;21156;-76
2024/01/30 10:10:49;;;;;;;14.77;11.50;;;8.80;1.00;;;;;;5050864;28;21183;-76
2024/01/30 10:13:16;;;;;;;12.97;10.27;;;9.00;1.00;;;;;;5049566;28;20995;-75
2024/01/30 10:15:44;;;;;;;11.57;10.43;;;9.40;1.00;;;;;;5035228;28;20449;-74
2024/01/30 10:18:12;;;;;;;12.97;11.57;;;9.40;1.00;;;;;;5050702;28;20526;-76
2024/01/30 10:20:39;;;;;;;14.50;11.33;;;9.50;1.00;;;;;;5037751;28;20527;-76
2024/01/30 10:23:08;;;;;;;17.00;10.60;;;9.60;1.00;;;;;;5044750;28;20647;-74
2024/01/30 10:25:37;;;;;;;12.47;10.90;;;9.70;1.00;;;;;;5049262;28;20472;-75
2024/01/30 10:28:04;;;;;;;13.80;10.80;;;9.70;1.00;;;;;;5040135;28;20612;-76
2024/01/30 10:30:31;;;;;;;12.67;11.20;;;9.70;1.00;;;;;;5040559;28;20528;-77
2024/01/30 10:33:00;;;;;;;22.20;12.60;;;9.70;1.00;;;;;;5031128;28;20548;-75
2024/01/30 10:35:28;;;;;;;20.70;12.03;;;9.70;1.00;;;;;;5029836;28;21209;-76
2024/01/30 10:37:58;;;;;;;11.93;10.70;;;9.70;1.00;;;;;;5029627;28;20484;-76
2024/01/30 10:40:29;;;;;;;13.90;10.53;;;9.70;1.00;;;;;;5029639;28;20548;-77
2024/01/30 10:42:57;;;;;;;25.90;11.77;;;9.80;1.00;;;;;;5030306;28;20571;-75
2024/01/30 10:45:27;;;;;;;16.53;10.90;;;9.80;1.00;;;;;;5027798;28;20916;-77
2024/01/30 10:47:57;;;;;;;11.37;9.73;;;9.90;1.00;;;;;;5038090;28;20915;-76
2024/01/30 10:50:26;;;;;;;11.87;10.50;;;10.00;1.00;;;;;;5038187;28;21030;-76
2024/01/30 10:52:54;;;;;;;28.37;12.30;;;9.90;1.00;;;;;;5030577;28;20995;-75
2024/01/30 10:55:24;;;;;;;52.87;16.63;;;9.90;1.00;;;;;;5036872;28;20457;-76
2024/01/30 10:57:51;;;;;;;14.00;9.70;;;9.90;1.00;;;;;;5047533;28;21377;-76
2024/01/30 11:00:23;;;;;;;10.80;9.00;;;9.90;1.00;;;;;;5045883;28;20526;-77
2024/01/30 11:02:50;;;;;;;34.17;13.50;;;9.90;1.00;;;;;;5045892;28;21271;-76
2024/01/30 11:05:26;;;;;;;12.90;9.10;;;10.00;1.00;;;;;;5028485;28;21233;-76
2024/01/30 11:07:53;;;;;;;9.83;8.00;;;10.10;1.00;;;;;;5043374;28;20572;-76
2024/01/30 11:10:26;;;;;;;10.57;8.67;;;10.00;1.00;;;;;;5041439;28;20545;-77
2024/01/30 11:12:54;;;;;;;12.90;8.57;;;10.10;1.00;;;;;;5047961;28;20551;-75
2024/01/30 11:15:26;;;;;;;18.83;10.37;;;10.10;1.00;;;;;;5033323;28;21724;-75
2024/01/30 11:17:53;;;;;;;9.17;8.20;;;10.20;1.00;;;;;;5040255;28;20519;-74
2024/01/30 11:20:21;;;;;;;8.77;7.87;;;10.50;1.00;;;;;;5044932;28;20444;-73
2024/01/30 11:22:49;;;;;;;32.87;10.40;;;10.50;1.00;;;;;;5031263;28;21006;-75
2024/01/30 11:25:17;;;;;;;10.23;7.50;;;10.50;1.00;;;;;;5038358;28;20548;-77
2024/01/30 11:27:45;;;;;;;10.40;7.73;;;10.40;1.00;;;;;;5034369;28;20547;-74
2024/01/30 11:30:21;;;;;;;7.80;7.00;;;10.20;1.00;;;;;;5049968;28;20453;-75
2024/01/30 11:32:59;;;;;;;13.40;7.90;;;10.10;1.00;;;;;;5033683;28;20514;-74
2024/01/30 11:35:28;;;;;;;8.30;7.27;;;10.10;1.00;;;;;;5046932;28;20530;-73
2024/01/30 11:37:59;;;;;;;11.90;7.97;;;10.00;1.00;;;;;;5049283;28;20559;-73
2024/01/30 11:40:28;;;;;;;7.70;6.90;;;10.00;1.00;;;;;;5048543;28;20468;-75
2024/01/30 11:42:56;;;;;;;10.23;7.67;;;10.00;1.00;;;;;;5034723;28;20551;-75
2024/01/30 11:45:23;;;;;;;29.73;10.57;;;10.10;1.00;;;;;;5031245;28;20551;-73
2024/01/30 11:47:51;;;;;;;9.53;8.03;;;10.20;1.00;;;;;;5047866;28;20520;-75
2024/01/30 11:50:18;;;;;;;9.40;7.73;;;10.40;1.00;;;;;;5040347;28;20461;-73
2024/01/30 11:52:46;;;;;;;10.40;8.00;;;10.40;1.00;;;;;;5045861;28;20548;-73
2024/01/30 11:55:14;;;;;;;12.17;8.77;;;10.60;1.00;;;;;;5049360;28;20451;-77
2024/01/30 11:57:41;;;;;;;11.40;8.10;;;10.70;1.00;;;;;;5046636;28;20457;-73
2024/01/30 12:00:18;;;;;;;11.67;7.70;;;10.90;1.00;;;;;;5051487;28;20484;-76
2024/01/30 12:02:50;;;;;;;12.27;7.77;;;11.00;1.00;;;;;;5042063;28;20467;-74
2024/01/30 12:05:20;;;;;;;9.77;8.77;;;11.00;1.00;;;;;;5053165;28;20472;-73
2024/01/30 12:07:47;;;;;;;11.07;8.17;;;10.90;1.00;;;;;;5029401;28;20477;-74
2024/01/30 12:10:16;;;;;;;13.37;9.60;;;10.80;1.00;;;;;;5036172;28;20465;-77
2024/01/30 12:12:46;;;;;;;11.50;9.40;;;11.00;1.00;;;;;;5031525;28;21366;-73
2024/01/30 12:15:14;;;;;;;21.33;9.77;;;11.20;1.00;;;;;;5028310;28;20505;-75
2024/01/30 12:17:42;;;;;;;22.90;10.50;;;11.30;1.00;;;;;;5015886;28;22529;-73
2024/01/30 12:20:11;;;;;;;11.67;8.37;;;11.40;1.00;;;;;;5031757;28;20466;-76
2024/01/30 12:22:41;;;;;;;15.90;9.47;;;11.50;1.00;;;;;;5019846;28;20546;-73
2024/01/30 12:25:10;;;;;;;11.27;9.23;;;11.70;1.00;;;;;;5009998;28;20455;-73
2024/01/30 12:27:37;;;;;;;10.83;8.00;;;11.80;1.00;;;;;;5011575;28;20988;-78
2024/01/30 12:30:07;;;;;;;9.20;8.30;;;11.70;1.00;;;;;;5008940;28;20482;-77
2024/01/30 12:32:36;;;;;;;10.37;8.73;;;11.30;1.00;;;;;;5017160;28;20890;-76
2024/01/30 12:35:04;;;;;;;15.03;8.30;;;11.30;1.00;;;;;;5030464;28;21058;-76
2024/01/30 12:37:33;;;;;;;10.50;7.97;;;11.40;1.00;;;;;;5030669;28;20572;-77
2024/01/30 12:40:02;;;;;;;10.47;8.63;;;11.30;1.00;;;;;;5031467;28;20464;-78
2024/01/30 12:42:30;;;;;;;10.63;8.83;;;11.20;1.00;;;;;;5030882;28;20461;-78
2024/01/30 12:44:59;;;;;;;11.20;8.60;;;11.50;1.00;;;;;;5016744;28;20462;-76
2024/01/30 12:47:26;;;;;;;13.03;8.23;;;11.60;1.00;;;;;;5029485;28;20466;-76
2024/01/30 12:49:53;;;;;;;8.77;7.90;;;11.40;1.00;;;;;;5024365;28;20516;-76
2024/01/30 12:52:22;;;;;;;10.87;9.00;;;11.20;1.00;;;;;;5009707;28;20464;-77